Time,TemperatureF,DewpointF,PressureIn,WindDirection,WindDirectionDegrees,WindSpeedMPH,WindSpeedGustMPH,Humidity,HourlyPrecipIn,Conditions,Clouds,dailyrainin,SoftwareType,DateUTC
2013-02-14 00:11:00,37.2,33.0,30.19,SE,136,0.0,0.0,83,0.00,,,0.00,weatherlink.com 1.10,2013-02-14 08:11:00,
2013-02-14 00:26:00,37.0,33.0,30.19,SE,135,0.0,0.0,84,0.00,,,0.00,weatherlink.com 1.10,2013-02-14 08:26:00,
2013-02-14 00:41:00,36.7,32.0,30.18,SE,135,0.0,0.0,84,0.00,,,0.00,weatherlink.com 1.10,2013-02-14 08:41:00,
2013-02-14 00:56:00,36.5,32.0,30.18,SE,136,0.0,0.0,84,0.00,,,0.00,weatherlink.com 1.10,2013-02-14 08:56:00,
2013-02-14 01:11:00,37.1,33.0,30.18,SW,222,0.0,3.0,84,0.00,,,0.00,weatherlink.com 1.10,2013-02-14 09:11:00,
2013-02-14 01:26:00,37.3,33.0,30.18,SW,222,0.0,0.0,83,0.00,,,0.00,weatherlink.com 1.10,2013-02-14 09:26:00,
2013-02-14 01:41:00,36.7,32.0,30.18,SW,224,0.0,0.0,83,0.00,,,0.00,weatherlink.com 1.10,2013-02-14 09:41:00,
2013-02-14 01:56:00,36.2,32.0,30.18,SW,222,0.0,0.0,84,0.00,,,0.00,weatherlink.com 1.10,2013-02-14 09:56:00,
2013-02-14 02:11:00,35.9,32.0,30.17,SW,222,0.0,0.0,84,0.00,,,0.00,weatherlink.com 1.10,2013-02-14 10:11:00,
2013-02-14 02:26:00,35.6,31.0,30.17,East,86,0.0,0.0,84,0.00,,,0.00,weatherlink.com 1.10,2013-02-14 10:26:00,
2013-02-14 02:41:00,35.4,31.0,30.16,East,86,0.0,0.0,84,0.00,,,0.00,weatherlink.com 1.10,2013-02-14 10:41:00,
2013-02-14 02:56:00,35.0,31.0,30.16,East,86,0.0,0.0,84,0.00,,,0.00,weatherlink.com 1.10,2013-02-14 10:56:00,
2013-02-14 03:11:00,34.5,30.0,30.16,East,86,0.0,0.0,84,0.00,,,0.00,weatherlink.com 1.10,2013-02-14 11:11:00,
2013-02-14 03:26:00,34.4,30.0,30.16,East,86,0.0,0.0,85,0.00,,,0.00,weatherlink.com 1.10,2013-02-14 11:26:00,
2013-02-14 03:41:00,34.4,30.0,30.16,NE,41,2.0,6.0,85,0.00,,,0.00,weatherlink.com 1.10,2013-02-14 11:41:00,
2013-02-14 03:56:00,35.4,31.0,30.16,SW,231,0.0,3.0,84,0.00,,,0.00,weatherlink.com 1.10,2013-02-14 11:56:00,
2013-02-14 04:11:00,35.3,31.0,30.17,ENE,57,0.0,1.0,84,0.00,,,0.00,weatherlink.com 1.10,2013-02-14 12:11:00,
2013-02-14 04:26:00,34.8,30.0,30.17,SSE,149,0.0,0.0,84,0.00,,,0.00,weatherlink.com 1.10,2013-02-14 12:26:00,
2013-02-14 04:41:00,34.3,30.0,30.18,SSE,148,0.0,0.0,84,0.00,,,0.00,weatherlink.com 1.10,2013-02-14 12:41:00,
2013-02-14 04:56:00,34.0,30.0,30.17,SSE,150,0.0,0.0,84,0.00,,,0.00,weatherlink.com 1.10,2013-02-14 12:56:00,
2013-02-14 05:11:00,34.3,30.0,30.17,NNE,27,2.0,3.0,85,0.00,,,0.00,weatherlink.com 1.10,2013-02-14 13:11:00,
2013-02-14 05:26:00,35.1,31.0,30.17,SSE,158,0.0,3.0,84,0.00,,,0.00,weatherlink.com 1.10,2013-02-14 13:26:00,
2013-02-14 05:41:00,34.8,30.0,30.17,SSE,158,0.0,1.0,84,0.00,,,0.00,weatherlink.com 1.10,2013-02-14 13:41:00,
2013-02-14 05:56:00,34.2,30.0,30.17,SSE,158,0.0,0.0,84,0.00,,,0.00,weatherlink.com 1.10,2013-02-14 13:56:00,
2013-02-14 06:11:00,33.7,30.0,30.16,SSE,158,0.0,0.0,85,0.00,,,0.00,weatherlink.com 1.10,2013-02-14 14:11:00,
2013-02-14 06:26:00,33.5,30.0,30.16,SSE,163,0.0,0.0,86,0.00,,,0.00,weatherlink.com 1.10,2013-02-14 14:26:00,
2013-02-14 06:41:00,33.5,30.0,30.16,SE,139,0.0,0.0,87,0.00,,,0.00,weatherlink.com 1.10,2013-02-14 14:41:00,
2013-02-14 06:57:00,33.6,30.0,30.16,SE,140,0.0,0.0,87,0.00,,,0.00,weatherlink.com 1.10,2013-02-14 14:57:00,
2013-02-14 07:12:00,34.0,31.0,30.16,SE,140,0.0,0.0,87,0.00,,,0.00,weatherlink.com 1.10,2013-02-14 15:12:00,
2013-02-14 07:27:00,36.7,33.0,30.17,SE,134,0.0,0.0,86,0.00,,,0.00,weatherlink.com 1.10,2013-02-14 15:27:00,
2013-02-14 07:42:00,39.4,34.0,30.18,SE,132,0.0,0.0,81,0.00,,,0.00,weatherlink.com 1.10,2013-02-14 15:42:00,
2013-02-14 07:57:00,43.3,37.0,30.18,SSE,149,0.0,0.0,78,0.00,,,0.00,weatherlink.com 1.10,2013-02-14 15:57:00,
2013-02-14 08:12:00,46.8,38.0,30.18,SSE,149,0.0,0.0,71,0.00,,,0.00,weatherlink.com 1.10,2013-02-14 16:12:00,
2013-02-14 08:27:00,51.0,40.0,30.19,SSE,148,0.0,0.0,66,0.00,,,0.00,weatherlink.com 1.10,2013-02-14 16:27:00,
2013-02-14 08:42:00,54.9,41.0,30.19,SW,217,0.0,0.0,61,0.00,,,0.00,weatherlink.com 1.10,2013-02-14 16:42:00,
2013-02-14 08:57:00,61.4,30.0,30.20,ENE,62,3.0,5.0,30,0.00,,,0.00,weatherlink.com 1.10,2013-02-14 16:57:00,
2013-02-14 09:12:00,63.9,29.0,30.21,NE,55,6.0,7.0,27,0.00,,,0.00,weatherlink.com 1.10,2013-02-14 17:12:00,
2013-02-14 09:27:00,65.1,28.0,30.21,NNE,12,4.0,6.0,25,0.00,,,0.00,weatherlink.com 1.10,2013-02-14 17:27:00,
2013-02-14 09:42:00,66.0,27.0,30.21,NNE,26,2.0,8.0,23,0.00,,,0.00,weatherlink.com 1.10,2013-02-14 17:42:00,
2013-02-14 09:57:00,67.2,27.0,30.21,East,101,2.0,7.0,22,0.00,,,0.00,weatherlink.com 1.10,2013-02-14 17:57:00,
2013-02-14 10:12:00,68.6,29.0,30.22,NNE,16,4.0,7.0,23,0.00,,,0.00,weatherlink.com 1.10,2013-02-14 18:12:00,
2013-02-14 10:27:00,69.5,29.0,30.21,ENE,60,2.0,7.0,22,0.00,,,0.00,weatherlink.com 1.10,2013-02-14 18:27:00,
2013-02-14 10:42:00,70.3,31.0,30.21,ENE,78,2.0,10.0,23,0.00,,,0.00,weatherlink.com 1.10,2013-02-14 18:42:00,
2013-02-14 10:57:00,70.8,30.0,30.20,NE,39,9.0,10.0,22,0.00,,,0.00,weatherlink.com 1.10,2013-02-14 18:57:00,
2013-02-14 11:13:00,71.8,30.0,30.18,ENE,75,4.0,9.0,21,0.00,,,0.00,weatherlink.com 1.10,2013-02-14 19:13:00,
2013-02-14 11:28:00,72.2,30.0,30.18,ENE,65,7.0,10.0,21,0.00,,,0.00,weatherlink.com 1.10,2013-02-14 19:28:00,
2013-02-14 11:43:00,72.7,29.0,30.17,East,94,12.0,13.0,20,0.00,,,0.00,weatherlink.com 1.10,2013-02-14 19:43:00,
2013-02-14 11:58:00,72.9,29.0,30.16,NE,51,7.0,15.0,20,0.00,,,0.00,weatherlink.com 1.10,2013-02-14 19:58:00,
2013-02-14 12:13:00,73.2,30.0,30.15,ESE,114,7.0,14.0,20,0.00,,,0.00,weatherlink.com 1.10,2013-02-14 20:13:00,
2013-02-14 12:28:00,74.0,30.0,30.14,NNE,23,4.0,18.0,20,0.00,,,0.00,weatherlink.com 1.10,2013-02-14 20:28:00,
2013-02-14 12:43:00,74.1,29.0,30.13,NE,34,9.0,18.0,19,0.00,,,0.00,weatherlink.com 1.10,2013-02-14 20:43:00,
2013-02-14 12:58:00,74.0,29.0,30.12,NNE,26,5.0,17.0,19,0.00,,,0.00,weatherlink.com 1.10,2013-02-14 20:58:00,
2013-02-14 13:13:00,74.1,29.0,30.11,NE,47,7.0,14.0,19,0.00,,,0.00,weatherlink.com 1.10,2013-02-14 21:13:00,
2013-02-14 13:28:00,74.4,29.0,30.11,ENE,57,5.0,15.0,19,0.00,,,0.00,weatherlink.com 1.10,2013-02-14 21:28:00,
2013-02-14 13:43:00,74.6,31.0,30.10,SE,143,4.0,11.0,20,0.00,,,0.00,weatherlink.com 1.10,2013-02-14 21:43:00,
2013-02-14 13:58:00,74.8,30.0,30.09,NE,55,8.0,15.0,19,0.00,,,0.00,weatherlink.com 1.10,2013-02-14 21:58:00,
2013-02-14 14:13:00,75.1,30.0,30.09,NNW,332,6.0,13.0,19,0.00,,,0.00,weatherlink.com 1.10,2013-02-14 22:13:00,
2013-02-14 14:28:00,75.4,29.0,30.09,NNE,13,6.0,11.0,18,0.00,,,0.00,weatherlink.com 1.10,2013-02-14 22:28:00,
2013-02-14 14:43:00,75.5,28.0,30.09,East,97,8.0,15.0,17,0.00,,,0.00,weatherlink.com 1.10,2013-02-14 22:43:00,
2013-02-14 14:58:00,75.5,28.0,30.09,NE,45,7.0,13.0,17,0.00,,,0.00,weatherlink.com 1.10,2013-02-14 22:58:00,
2013-02-14 15:28:00,75.5,25.0,30.09,ENE,75,15.0,19.0,15,0.00,,,0.00,weatherlink.com 1.10,2013-02-14 23:28:00,
2013-02-14 15:43:00,75.1,26.0,30.09,East,90,6.0,14.0,16,0.00,,,0.00,weatherlink.com 1.10,2013-02-14 23:43:00,
2013-02-14 15:58:00,75.2,26.0,30.09,ESE,121,5.0,17.0,16,0.00,,,0.00,weatherlink.com 1.10,2013-02-14 23:58:00,
2013-02-14 16:13:00,74.9,26.0,30.09,ENE,58,4.0,16.0,16,0.00,,,0.00,weatherlink.com 1.10,2013-02-15 00:13:00,
2013-02-14 16:28:00,74.7,26.0,30.09,East,79,3.0,14.0,16,0.00,,,0.00,weatherlink.com 1.10,2013-02-15 00:28:00,
2013-02-14 16:43:00,74.4,25.0,30.09,NE,49,2.0,12.0,16,0.00,,,0.00,weatherlink.com 1.10,2013-02-15 00:43:00,
2013-02-14 16:58:00,74.0,25.0,30.09,ENE,61,9.0,11.0,16,0.00,,,0.00,weatherlink.com 1.10,2013-02-15 00:58:00,
2013-02-14 17:13:00,73.6,25.0,30.10,ENE,60,2.0,9.0,16,0.00,,,0.00,weatherlink.com 1.10,2013-02-15 01:13:00,
2013-02-14 17:28:00,72.3,26.0,30.10,North,357,4.0,5.0,18,0.00,,,0.00,weatherlink.com 1.10,2013-02-15 01:28:00,
2013-02-14 17:43:00,63.3,36.0,30.11,WSW,242,1.0,5.0,36,0.00,,,0.00,weatherlink.com 1.10,2013-02-15 01:43:00,
2013-02-14 17:58:00,59.7,36.0,30.11,West,278,2.0,3.0,42,0.00,,,0.00,weatherlink.com 1.10,2013-02-15 01:58:00,
2013-02-14 18:13:00,57.9,38.0,30.13,West,271,1.0,3.0,47,0.00,,,0.00,weatherlink.com 1.10,2013-02-15 02:13:00,
2013-02-14 18:28:00,56.9,38.0,30.14,West,271,0.0,2.0,49,0.00,,,0.00,weatherlink.com 1.10,2013-02-15 02:28:00,
2013-02-14 18:43:00,56.0,38.0,30.15,SSW,201,0.0,3.0,52,0.00,,,0.00,weatherlink.com 1.10,2013-02-15 02:43:00,
2013-02-14 18:58:00,54.8,38.0,30.15,West,270,0.0,0.0,54,0.00,,,0.00,weatherlink.com 1.10,2013-02-15 02:58:00,
2013-02-14 19:13:00,53.7,38.0,30.16,West,270,0.0,0.0,56,0.00,,,0.00,weatherlink.com 1.10,2013-02-15 03:13:00,
2013-02-14 19:28:00,52.4,38.0,30.16,West,270,0.0,0.0,59,0.00,,,0.00,weatherlink.com 1.10,2013-02-15 03:28:00,
2013-02-14 19:43:00,50.4,35.0,30.16,SE,137,1.0,1.0,57,0.00,,,0.00,weatherlink.com 1.10,2013-02-15 03:43:00,
2013-02-14 19:58:00,49.2,34.0,30.16,SE,130,1.0,1.0,57,0.00,,,0.00,weatherlink.com 1.10,2013-02-15 03:58:00,
2013-02-14 20:13:00,48.3,34.0,30.16,SE,129,0.0,1.0,59,0.00,,,0.00,weatherlink.com 1.10,2013-02-15 04:13:00,
2013-02-14 20:28:00,47.3,34.0,30.17,SE,130,0.0,0.0,61,0.00,,,0.00,weatherlink.com 1.10,2013-02-15 04:28:00,
2013-02-14 20:43:00,46.5,34.0,30.18,SE,130,0.0,0.0,63,0.00,,,0.00,weatherlink.com 1.10,2013-02-15 04:43:00,
2013-02-14 20:58:00,45.6,34.0,30.18,SE,130,0.0,1.0,64,0.00,,,0.00,weatherlink.com 1.10,2013-02-15 04:58:00,
2013-02-14 21:14:00,44.9,34.0,30.18,SE,131,0.0,2.0,65,0.00,,,0.00,weatherlink.com 1.10,2013-02-15 05:14:00,
2013-02-14 21:28:00,44.5,34.0,30.18,East,101,0.0,0.0,66,0.00,,,0.00,weatherlink.com 1.10,2013-02-15 05:28:00,
2013-02-14 21:44:00,44.0,34.0,30.18,East,101,0.0,0.0,67,0.00,,,0.00,weatherlink.com 1.10,2013-02-15 05:44:00,
2013-02-14 21:58:00,43.6,33.0,30.19,SE,125,0.0,2.0,67,0.00,,,0.00,weatherlink.com 1.10,2013-02-15 05:58:00,
2013-02-14 22:14:00,43.3,33.0,30.18,SE,131,0.0,0.0,68,0.00,,,0.00,weatherlink.com 1.10,2013-02-15 06:14:00,
2013-02-14 22:29:00,43.6,34.0,30.18,SSW,193,0.0,4.0,68,0.00,,,0.00,weatherlink.com 1.10,2013-02-15 06:29:00,
2013-02-14 22:44:00,43.5,34.0,30.18,ESE,121,1.0,2.0,68,0.00,,,0.00,weatherlink.com 1.10,2013-02-15 06:44:00,
2013-02-14 22:59:00,43.7,33.0,30.18,South,169,0.0,3.0,66,0.00,,,0.00,weatherlink.com 1.10,2013-02-15 06:59:00,
2013-02-14 23:14:00,43.5,32.0,30.18,SSE,162,0.0,2.0,65,0.00,,,0.00,weatherlink.com 1.10,2013-02-15 07:14:00,
2013-02-14 23:29:00,43.2,32.0,30.19,ENE,73,0.0,1.0,66,0.00,,,0.00,weatherlink.com 1.10,2013-02-15 07:29:00,
2013-02-14 23:44:00,42.7,33.0,30.19,ESE,120,1.0,1.0,68,0.00,,,0.00,weatherlink.com 1.10,2013-02-15 07:44:00,
2013-02-14 23:59:00,42.7,33.0,30.19,ESE,120,0.0,0.0,68,0.00,,,0.00,weatherlink.com 1.10,2013-02-15 07:59:00,